sensor_id;sensor_type;location;lat;lon;timestamp;P1;durP1;ratioP1;P2;durP2;ratioP2
5217;SDS011;26539;51.064;6.346;2023-08-30T00:02:04;11.37;;;10.27;;
5217;SDS011;26539;51.064;6.346;2023-08-30T00:04:30;10.67;;;9.60;;
5217;SDS011;26539;51.064;6.346;2023-08-30T00:06:55;14.23;;;10.20;;
5217;SDS011;26539;51.064;6.346;2023-08-30T00:09:21;12.90;;;10.57;;
5217;SDS011;26539;51.064;6.346;2023-08-30T00:11:46;11.80;;;10.60;;
5217;SDS011;26539;51.064;6.346;2023-08-30T00:14:12;15.87;;;10.90;;
5217;SDS011;26539;51.064;6.346;2023-08-30T00:16:37;12.23;;;10.90;;
5217;SDS011;26539;51.064;6.346;2023-08-30T00:19:03;11.70;;;10.50;;
5217;SDS011;26539;51.064;6.346;2023-08-30T00:21:29;11.77;;;10.57;;
5217;SDS011;26539;51.064;6.346;2023-08-30T00:23:55;11.87;;;10.73;;
5217;SDS011;26539;51.064;6.346;2023-08-30T00:26:20;11.60;;;10.37;;
5217;SDS011;26539;51.064;6.346;2023-08-30T00:28:46;13.00;;;11.03;;
5217;SDS011;26539;51.064;6.346;2023-08-30T00:31:11;13.00;;;11.37;;
5217;SDS011;26539;51.064;6.346;2023-08-30T00:33:37;20.60;;;12.60;;
5217;SDS011;26539;51.064;6.346;2023-08-30T00:36:02;12.53;;;11.20;;
5217;SDS011;26539;51.064;6.346;2023-08-30T00:38:28;13.10;;;11.50;;
5217;SDS011;26539;51.064;6.346;2023-08-30T00:40:54;13.00;;;11.07;;
5217;SDS011;26539;51.064;6.346;2023-08-30T00:43:20;13.53;;;11.77;;
5217;SDS011;26539;51.064;6.346;2023-08-30T00:45:46;13.70;;;11.40;;
5217;SDS011;26539;51.064;6.346;2023-08-30T00:48:13;17.33;;;11.70;;
5217;SDS011;26539;51.064;6.346;2023-08-30T00:50:41;15.50;;;11.80;;
5217;SDS011;26539;51.064;6.346;2023-08-30T00:53:07;15.87;;;11.63;;
5217;SDS011;26539;51.064;6.346;2023-08-30T00:55:34;14.23;;;11.93;;
5217;SDS011;26539;51.064;6.346;2023-08-30T00:58:00;22.00;;;12.80;;
5217;SDS011;26539;51.064;6.346;2023-08-30T01:00:27;17.60;;;12.27;;
5217;SDS011;26539;51.064;6.346;2023-08-30T01:02:55;15.43;;;11.57;;
5217;SDS011;26539;51.064;6.346;2023-08-30T01:05:21;13.00;;;11.80;;
5217;SDS011;26539;51.064;6.346;2023-08-30T01:07:47;13.80;;;12.40;;
5217;SDS011;26539;51.064;6.346;2023-08-30T01:10:16;13.03;;;11.63;;
5217;SDS011;26539;51.064;6.346;2023-08-30T01:12:45;14.60;;;11.63;;
5217;SDS011;26539;51.064;6.346;2023-08-30T01:15:15;15.70;;;12.40;;
5217;SDS011;26539;51.064;6.346;2023-08-30T01:17:44;16.80;;;13.23;;
5217;SDS011;26539;51.064;6.346;2023-08-30T01:20:14;16.33;;;12.17;;
5217;SDS011;26539;51.064;6.346;2023-08-30T01:27:58;17.77;;;13.57;;
5217;SDS011;26539;51.064;6.346;2023-08-30T01:30:29;17.33;;;12.20;;
5217;SDS011;26539;51.064;6.346;2023-08-30T01:32:56;14.53;;;12.40;;
5217;SDS011;26539;51.064;6.346;2023-08-30T01:35:23;13.50;;;11.77;;
5217;SDS011;26539;51.064;6.346;2023-08-30T01:37:49;18.63;;;13.87;;
5217;SDS011;26539;51.064;6.346;2023-08-30T01:40:16;14.70;;;13.13;;
5217;SDS011;26539;51.064;6.346;2023-08-30T01:42:43;15.40;;;13.87;;
5217;SDS011;26539;51.064;6.346;2023-08-30T01:45:10;13.90;;;12.50;;
5217;SDS011;26539;51.064;6.346;2023-08-30T01:47:38;14.23;;;12.80;;
5217;SDS011;26539;51.064;6.346;2023-08-30T01:50:06;14.57;;;13.03;;
5217;SDS011;26539;51.064;6.346;2023-08-30T01:52:32;17.50;;;15.70;;
5217;SDS011;26539;51.064;6.346;2023-08-30T01:54:57;17.03;;;14.50;;
5217;SDS011;26539;51.064;6.346;2023-08-30T01:57:25;17.20;;;15.50;;
5217;SDS011;26539;51.064;6.346;2023-08-30T01:59:50;17.10;;;15.30;;
5217;SDS011;26539;51.064;6.346;2023-08-30T02:02:17;17.87;;;15.73;;
5217;SDS011;26539;51.064;6.346;2023-08-30T02:04:42;19.13;;;15.60;;
5217;SDS011;26539;51.064;6.346;2023-08-30T02:07:08;17.27;;;15.27;;
5217;SDS011;26539;51.064;6.346;2023-08-30T02:09:44;17.77;;;15.47;;
5217;SDS011;26539;51.064;6.346;2023-08-30T02:12:18;18.23;;;15.57;;
5217;SDS011;26539;51.064;6.346;2023-08-30T02:14:48;17.50;;;15.67;;
5217;SDS011;26539;51.064;6.346;2023-08-30T02:17:14;18.43;;;15.43;;
5217;SDS011;26539;51.064;6.346;2023-08-30T02:19:42;21.20;;;17.23;;
5217;SDS011;26539;51.064;6.346;2023-08-30T02:22:08;17.37;;;15.67;;
5217;SDS011;26539;51.064;6.346;2023-08-30T02:24:34;18.83;;;16.60;;
5217;SDS011;26539;51.064;6.346;2023-08-30T02:27:00;21.70;;;16.97;;
5217;SDS011;26539;51.064;6.346;2023-08-30T02:29:25;17.80;;;15.90;;
5217;SDS011;26539;51.064;6.346;2023-08-30T02:31:51;19.67;;;17.57;;
5217;SDS011;26539;51.064;6.346;2023-08-30T02:34:16;22.70;;;18.47;;
5217;SDS011;26539;51.064;6.346;2023-08-30T02:36:42;22.30;;;16.70;;
5217;SDS011;26539;51.064;6.346;2023-08-30T02:39:07;20.63;;;18.20;;
5217;SDS011;26539;51.064;6.346;2023-08-30T02:41:33;20.90;;;18.67;;
5217;SDS011;26539;51.064;6.346;2023-08-30T02:43:59;20.37;;;18.10;;
5217;SDS011;26539;51.064;6.346;2023-08-30T02:46:25;22.03;;;17.30;;
5217;SDS011;26539;51.064;6.346;2023-08-30T02:48:50;17.90;;;16.00;;
5217;SDS011;26539;51.064;6.346;2023-08-30T02:51:16;22.30;;;17.80;;
5217;SDS011;26539;51.064;6.346;2023-08-30T02:53:42;22.87;;;17.90;;
5217;SDS011;26539;51.064;6.346;2023-08-30T02:56:07;23.30;;;17.47;;
5217;SDS011;26539;51.064;6.346;2023-08-30T02:58:33;19.43;;;16.47;;
5217;SDS011;26539;51.064;6.346;2023-08-30T03:00:59;22.93;;;16.97;;
5217;SDS011;26539;51.064;6.346;2023-08-30T03:03:25;18.90;;;16.90;;
5217;SDS011;26539;51.064;6.346;2023-08-30T03:05:50;19.03;;;16.43;;
5217;SDS011;26539;51.064;6.346;2023-08-30T03:08:16;24.93;;;16.60;;
5217;SDS011;26539;51.064;6.346;2023-08-30T03:10:41;21.67;;;16.93;;
5217;SDS011;26539;51.064;6.346;2023-08-30T03:13:07;23.77;;;17.70;;
5217;SDS011;26539;51.064;6.346;2023-08-30T03:15:32;21.50;;;18.20;;
5217;SDS011;26539;51.064;6.346;2023-08-30T03:17:59;20.70;;;16.30;;
5217;SDS011;26539;51.064;6.346;2023-08-30T03:20:25;19.30;;;17.30;;
5217;SDS011;26539;51.064;6.346;2023-08-30T03:22:50;20.83;;;17.00;;
5217;SDS011;26539;51.064;6.346;2023-08-30T03:25:16;18.50;;;16.40;;
5217;SDS011;26539;51.064;6.346;2023-08-30T03:27:43;19.30;;;17.03;;
5217;SDS011;26539;51.064;6.346;2023-08-30T03:30:09;21.30;;;17.17;;
5217;SDS011;26539;51.064;6.346;2023-08-30T03:32:35;22.90;;;16.67;;
5217;SDS011;26539;51.064;6.346;2023-08-30T03:35:02;19.53;;;15.90;;
5217;SDS011;26539;51.064;6.346;2023-08-30T03:37:28;18.23;;;15.63;;
5217;SDS011;26539;51.064;6.346;2023-08-30T03:39:54;19.73;;;16.37;;
5217;SDS011;26539;51.064;6.346;2023-08-30T03:42:19;20.13;;;17.50;;
5217;SDS011;26539;51.064;6.346;2023-08-30T03:44:45;18.67;;;16.53;;
5217;SDS011;26539;51.064;6.346;2023-08-30T03:47:10;18.20;;;16.23;;
5217;SDS011;26539;51.064;6.346;2023-08-30T03:49:36;19.63;;;15.90;;
5217;SDS011;26539;51.064;6.346;2023-08-30T03:52:01;20.77;;;16.50;;
5217;SDS011;26539;51.064;6.346;2023-08-30T03:54:27;18.80;;;16.57;;
5217;SDS011;26539;51.064;6.346;2023-08-30T03:56:52;18.67;;;16.70;;
5217;SDS011;26539;51.064;6.346;2023-08-30T03:59:18;18.93;;;16.57;;
5217;SDS011;26539;51.064;6.346;2023-08-30T04:01:44;20.43;;;18.20;;
5217;SDS011;26539;51.064;6.346;2023-08-30T04:04:10;20.00;;;16.60;;
5217;SDS011;26539;51.064;6.346;2023-08-30T04:06:35;22.20;;;18.10;;
5217;SDS011;26539;51.064;6.346;2023-08-30T04:09:01;22.80;;;17.70;;
5217;SDS011;26539;51.064;6.346;2023-08-30T04:11:26;18.93;;;17.00;;
5217;SDS011;26539;51.064;6.346;2023-08-30T04:13:52;18.93;;;17.03;;
5217;SDS011;26539;51.064;6.346;2023-08-30T04:16:17;21.47;;;17.90;;
5217;SDS011;26539;51.064;6.346;2023-08-30T04:18:43;22.77;;;15.90;;
5217;SDS011;26539;51.064;6.346;2023-08-30T04:21:09;20.40;;;17.03;;
5217;SDS011;26539;51.064;6.346;2023-08-30T04:23:34;18.07;;;16.17;;
5217;SDS011;26539;51.064;6.346;2023-08-30T04:26:00;18.40;;;16.50;;
5217;SDS011;26539;51.064;6.346;2023-08-30T04:28:26;22.37;;;16.53;;
5217;SDS011;26539;51.064;6.346;2023-08-30T04:30:54;18.63;;;15.77;;
5217;SDS011;26539;51.064;6.346;2023-08-30T04:33:20;18.80;;;16.80;;
5217;SDS011;26539;51.064;6.346;2023-08-30T04:35:50;19.07;;;16.10;;
5217;SDS011;26539;51.064;6.346;2023-08-30T04:38:16;20.10;;;15.70;;
5217;SDS011;26539;51.064;6.346;2023-08-30T04:40:41;17.63;;;15.73;;
5217;SDS011;26539;51.064;6.346;2023-08-30T04:43:07;19.50;;;16.67;;
5217;SDS011;26539;51.064;6.346;2023-08-30T04:45:34;18.57;;;16.60;;
5217;SDS011;26539;51.064;6.346;2023-08-30T04:47:59;17.40;;;15.67;;
5217;SDS011;26539;51.064;6.346;2023-08-30T04:50:25;17.77;;;15.83;;
5217;SDS011;26539;51.064;6.346;2023-08-30T04:52:50;17.60;;;15.13;;
5217;SDS011;26539;51.064;6.346;2023-08-30T04:55:16;15.70;;;13.87;;
5217;SDS011;26539;51.064;6.346;2023-08-30T04:57:42;20.57;;;14.90;;
5217;SDS011;26539;51.064;6.346;2023-08-30T05:00:10;16.80;;;15.00;;
5217;SDS011;26539;51.064;6.346;2023-08-30T05:02:37;17.67;;;14.80;;
5217;SDS011;26539;51.064;6.346;2023-08-30T05:05:02;18.33;;;15.50;;
5217;SDS011;26539;51.064;6.346;2023-08-30T05:07:28;16.93;;;14.97;;
5217;SDS011;26539;51.064;6.346;2023-08-30T05:09:54;18.87;;;15.20;;
5217;SDS011;26539;51.064;6.346;2023-08-30T05:12:20;20.07;;;15.07;;
5217;SDS011;26539;51.064;6.346;2023-08-30T05:14:45;16.50;;;14.90;;
5217;SDS011;26539;51.064;6.346;2023-08-30T05:17:11;19.20;;;15.07;;
5217;SDS011;26539;51.064;6.346;2023-08-30T05:19:36;15.70;;;13.70;;
5217;SDS011;26539;51.064;6.346;2023-08-30T05:22:02;16.40;;;14.70;;
5217;SDS011;26539;51.064;6.346;2023-08-30T05:24:28;15.03;;;13.43;;
5217;SDS011;26539;51.064;6.346;2023-08-30T05:26:54;16.00;;;14.13;;
5217;SDS011;26539;51.064;6.346;2023-08-30T05:29:19;17.53;;;14.47;;
5217;SDS011;26539;51.064;6.346;2023-08-30T05:31:45;15.70;;;14.07;;
5217;SDS011;26539;51.064;6.346;2023-08-30T05:34:10;14.47;;;13.03;;
5217;SDS011;26539;51.064;6.346;2023-08-30T05:36:36;15.13;;;13.60;;
5217;SDS011;26539;51.064;6.346;2023-08-30T05:39:02;18.13;;;13.33;;
5217;SDS011;26539;51.064;6.346;2023-08-30T05:41:28;15.30;;;13.70;;
5217;SDS011;26539;51.064;6.346;2023-08-30T05:43:54;15.03;;;13.43;;
5217;SDS011;26539;51.064;6.346;2023-08-30T05:46:20;17.43;;;14.57;;
5217;SDS011;26539;51.064;6.346;2023-08-30T05:48:45;21.33;;;15.13;;
5217;SDS011;26539;51.064;6.346;2023-08-30T05:51:14;14.13;;;12.63;;
5217;SDS011;26539;51.064;6.346;2023-08-30T05:53:40;14.77;;;12.97;;
5217;SDS011;26539;51.064;6.346;2023-08-30T05:56:05;15.37;;;12.80;;
5217;SDS011;26539;51.064;6.346;2023-08-30T05:58:31;20.73;;;12.90;;
5217;SDS011;26539;51.064;6.346;2023-08-30T06:00:57;12.00;;;10.80;;
5217;SDS011;26539;51.064;6.346;2023-08-30T06:03:24;16.40;;;12.63;;
5217;SDS011;26539;51.064;6.346;2023-08-30T06:05:50;13.43;;;12.03;;
5217;SDS011;26539;51.064;6.346;2023-08-30T06:08:15;14.20;;;12.23;;
5217;SDS011;26539;51.064;6.346;2023-08-30T06:10:42;12.63;;;11.33;;
5217;SDS011;26539;51.064;6.346;2023-08-30T06:13:08;14.93;;;11.77;;
5217;SDS011;26539;51.064;6.346;2023-08-30T06:15:34;13.70;;;11.03;;
5217;SDS011;26539;51.064;6.346;2023-08-30T06:18:00;12.83;;;11.27;;
5217;SDS011;26539;51.064;6.346;2023-08-30T06:20:26;15.77;;;11.30;;
5217;SDS011;26539;51.064;6.346;2023-08-30T06:22:51;15.50;;;11.13;;
5217;SDS011;26539;51.064;6.346;2023-08-30T06:25:17;11.37;;;10.27;;
5217;SDS011;26539;51.064;6.346;2023-08-30T06:27:54;11.03;;;9.77;;
5217;SDS011;26539;51.064;6.346;2023-08-30T06:30:21;11.00;;;9.90;;
5217;SDS011;26539;51.064;6.346;2023-08-30T06:32:47;9.33;;;8.33;;
5217;SDS011;26539;51.064;6.346;2023-08-30T06:35:14;9.40;;;8.50;;
5217;SDS011;26539;51.064;6.346;2023-08-30T06:37:39;16.30;;;9.30;;
5217;SDS011;26539;51.064;6.346;2023-08-30T06:40:05;10.10;;;7.80;;
5217;SDS011;26539;51.064;6.346;2023-08-30T06:42:31;9.07;;;7.70;;
5217;SDS011;26539;51.064;6.346;2023-08-30T06:44:57;9.33;;;7.83;;
5217;SDS011;26539;51.064;6.346;2023-08-30T06:47:22;10.00;;;6.87;;
5217;SDS011;26539;51.064;6.346;2023-08-30T06:49:48;7.80;;;6.23;;
5217;SDS011;26539;51.064;6.346;2023-08-30T06:52:13;6.80;;;6.20;;
5217;SDS011;26539;51.064;6.346;2023-08-30T06:54:39;6.70;;;6.00;;
5217;SDS011;26539;51.064;6.346;2023-08-30T06:57:04;6.47;;;5.77;;
5217;SDS011;26539;51.064;6.346;2023-08-30T06:59:31;6.97;;;6.37;;
5217;SDS011;26539;51.064;6.346;2023-08-30T07:01:57;8.83;;;5.63;;
5217;SDS011;26539;51.064;6.346;2023-08-30T07:04:23;6.43;;;5.17;;
5217;SDS011;26539;51.064;6.346;2023-08-30T07:06:48;5.50;;;5.00;;
5217;SDS011;26539;51.064;6.346;2023-08-30T07:09:14;5.73;;;5.13;;
5217;SDS011;26539;51.064;6.346;2023-08-30T07:11:41;11.73;;;5.40;;
5217;SDS011;26539;51.064;6.346;2023-08-30T07:14:09;6.90;;;5.07;;
5217;SDS011;26539;51.064;6.346;2023-08-30T07:16:34;6.23;;;4.80;;
5217;SDS011;26539;51.064;6.346;2023-08-30T07:19:00;5.33;;;4.57;;
5217;SDS011;26539;51.064;6.346;2023-08-30T07:21:27;8.40;;;5.40;;
5217;SDS011;26539;51.064;6.346;2023-08-30T07:23:53;6.57;;;4.27;;
5217;SDS011;26539;51.064;6.346;2023-08-30T07:26:18;6.37;;;4.70;;
5217;SDS011;26539;51.064;6.346;2023-08-30T07:28:44;5.70;;;3.93;;
5217;SDS011;26539;51.064;6.346;2023-08-30T07:31:10;6.90;;;4.30;;
5217;SDS011;26539;51.064;6.346;2023-08-30T07:33:39;7.93;;;4.40;;
5217;SDS011;26539;51.064;6.346;2023-08-30T07:36:04;11.63;;;4.67;;
5217;SDS011;26539;51.064;6.346;2023-08-30T07:38:30;5.63;;;4.00;;
5217;SDS011;26539;51.064;6.346;2023-08-30T07:40:56;6.60;;;4.20;;
5217;SDS011;26539;51.064;6.346;2023-08-30T07:43:21;10.13;;;4.60;;
5217;SDS011;26539;51.064;6.346;2023-08-30T07:45:47;8.47;;;4.80;;
5217;SDS011;26539;51.064;6.346;2023-08-30T07:48:12;8.23;;;4.20;;
5217;SDS011;26539;51.064;6.346;2023-08-30T07:50:38;4.33;;;3.60;;
5217;SDS011;26539;51.064;6.346;2023-08-30T07:53:03;5.73;;;3.60;;
5217;SDS011;26539;51.064;6.346;2023-08-30T07:55:29;6.23;;;3.80;;
5217;SDS011;26539;51.064;6.346;2023-08-30T07:57:55;5.33;;;3.90;;
5217;SDS011;26539;51.064;6.346;2023-08-30T08:00:20;7.43;;;3.80;;
5217;SDS011;26539;51.064;6.346;2023-08-30T08:02:46;10.90;;;3.70;;
5217;SDS011;26539;51.064;6.346;2023-08-30T08:05:11;5.30;;;4.00;;
5217;SDS011;26539;51.064;6.346;2023-08-30T08:07:41;6.17;;;4.70;;
5217;SDS011;26539;51.064;6.346;2023-08-30T08:10:07;7.17;;;4.70;;
5217;SDS011;26539;51.064;6.346;2023-08-30T08:12:34;11.07;;;5.60;;
5217;SDS011;26539;51.064;6.346;2023-08-30T08:15:00;6.57;;;5.97;;
5217;SDS011;26539;51.064;6.346;2023-08-30T08:17:25;6.87;;;5.77;;
5217;SDS011;26539;51.064;6.346;2023-08-30T08:19:51;7.00;;;5.60;;
5217;SDS011;26539;51.064;6.346;2023-08-30T08:22:16;7.73;;;5.23;;
5217;SDS011;26539;51.064;6.346;2023-08-30T08:24:42;7.37;;;5.90;;
5217;SDS011;26539;51.064;6.346;2023-08-30T08:27:08;7.53;;;5.37;;
5217;SDS011;26539;51.064;6.346;2023-08-30T08:29:34;8.93;;;5.63;;
5217;SDS011;26539;51.064;6.346;2023-08-30T08:32:00;6.47;;;5.67;;
5217;SDS011;26539;51.064;6.346;2023-08-30T08:34:25;7.67;;;5.10;;
5217;SDS011;26539;51.064;6.346;2023-08-30T08:36:51;7.27;;;5.57;;
5217;SDS011;26539;51.064;6.346;2023-08-30T08:39:16;6.10;;;5.33;;
5217;SDS011;26539;51.064;6.346;2023-08-30T08:41:43;6.10;;;4.87;;
5217;SDS011;26539;51.064;6.346;2023-08-30T08:44:10;6.20;;;5.50;;
5217;SDS011;26539;51.064;6.346;2023-08-30T08:46:36;8.10;;;5.20;;
5217;SDS011;26539;51.064;6.346;2023-08-30T08:49:24;6.70;;;4.73;;
5217;SDS011;26539;51.064;6.346;2023-08-30T08:51:53;5.20;;;4.70;;
5217;SDS011;26539;51.064;6.346;2023-08-30T08:54:19;7.77;;;4.80;;
5217;SDS011;26539;51.064;6.346;2023-08-30T08:56:45;5.37;;;4.83;;
5217;SDS011;26539;51.064;6.346;2023-08-30T08:59:10;10.43;;;4.97;;
5217;SDS011;26539;51.064;6.346;2023-08-30T09:01:36;5.17;;;4.67;;
5217;SDS011;26539;51.064;6.346;2023-08-30T09:04:08;5.70;;;4.70;;
5217;SDS011;26539;51.064;6.346;2023-08-30T09:06:35;5.80;;;4.70;;
5217;SDS011;26539;51.064;6.346;2023-08-30T09:09:03;4.90;;;4.30;;
5217;SDS011;26539;51.064;6.346;2023-08-30T09:11:29;4.90;;;4.33;;
5217;SDS011;26539;51.064;6.346;2023-08-30T09:13:54;5.17;;;4.60;;
5217;SDS011;26539;51.064;6.346;2023-08-30T09:16:20;9.33;;;4.00;;
5217;SDS011;26539;51.064;6.346;2023-08-30T09:18:56;7.87;;;4.90;;
5217;SDS011;26539;51.064;6.346;2023-08-30T09:21:26;5.80;;;4.03;;
5217;SDS011;26539;51.064;6.346;2023-08-30T09:26:28;6.53;;;4.43;;
5217;SDS011;26539;51.064;6.346;2023-08-30T09:28:56;6.30;;;3.97;;
5217;SDS011;26539;51.064;6.346;2023-08-30T09:31:35;4.20;;;3.80;;
5217;SDS011;26539;51.064;6.346;2023-08-30T09:34:02;6.23;;;3.20;;
5217;SDS011;26539;51.064;6.346;2023-08-30T09:39:04;4.30;;;3.90;;
5217;SDS011;26539;51.064;6.346;2023-08-30T09:41:31;3.43;;;3.10;;
5217;SDS011;26539;51.064;6.346;2023-08-30T09:43:58;3.70;;;3.23;;
5217;SDS011;26539;51.064;6.346;2023-08-30T09:46:24;5.33;;;3.13;;
5217;SDS011;26539;51.064;6.346;2023-08-30T09:48:50;3.30;;;2.60;;
5217;SDS011;26539;51.064;6.346;2023-08-30T09:51:16;4.50;;;2.77;;
5217;SDS011;26539;51.064;6.346;2023-08-30T09:53:45;5.33;;;2.97;;
5217;SDS011;26539;51.064;6.346;2023-08-30T09:56:15;5.93;;;2.90;;
5217;SDS011;26539;51.064;6.346;2023-08-30T09:58:43;4.30;;;2.60;;
5217;SDS011;26539;51.064;6.346;2023-08-30T10:01:09;4.43;;;3.07;;
5217;SDS011;26539;51.064;6.346;2023-08-30T10:03:35;5.80;;;3.20;;
5217;SDS011;26539;51.064;6.346;2023-08-30T10:06:01;4.37;;;3.47;;
5217;SDS011;26539;51.064;6.346;2023-08-30T10:08:30;4.37;;;3.73;;
5217;SDS011;26539;51.064;6.346;2023-08-30T10:10:57;4.73;;;4.00;;
5217;SDS011;26539;51.064;6.346;2023-08-30T10:13:24;7.90;;;4.43;;
5217;SDS011;26539;51.064;6.346;2023-08-30T10:15:50;5.63;;;4.43;;
5217;SDS011;26539;51.064;6.346;2023-08-30T10:18:22;11.20;;;4.37;;
5217;SDS011;26539;51.064;6.346;2023-08-30T10:20:53;7.13;;;5.00;;
5217;SDS011;26539;51.064;6.346;2023-08-30T10:23:20;5.10;;;4.60;;
5217;SDS011;26539;51.064;6.346;2023-08-30T10:25:47;6.37;;;5.23;;
5217;SDS011;26539;51.064;6.346;2023-08-30T10:28:15;7.77;;;4.70;;
5217;SDS011;26539;51.064;6.346;2023-08-30T10:30:41;10.23;;;5.00;;
5217;SDS011;26539;51.064;6.346;2023-08-30T10:33:14;6.00;;;4.80;;
5217;SDS011;26539;51.064;6.346;2023-08-30T10:35:48;5.90;;;4.93;;
5217;SDS011;26539;51.064;6.346;2023-08-30T10:38:23;6.70;;;4.93;;
5217;SDS011;26539;51.064;6.346;2023-08-30T10:40:53;6.70;;;5.43;;
5217;SDS011;26539;51.064;6.346;2023-08-30T10:43:29;6.03;;;4.70;;
5217;SDS011;26539;51.064;6.346;2023-08-30T10:46:01;5.33;;;4.53;;
5217;SDS011;26539;51.064;6.346;2023-08-30T10:48:37;5.20;;;4.70;;
5217;SDS011;26539;51.064;6.346;2023-08-30T10:51:05;5.00;;;4.50;;
5217;SDS011;26539;51.064;6.346;2023-08-30T10:53:54;6.50;;;5.80;;
5217;SDS011;26539;51.064;6.346;2023-08-30T10:56:26;5.70;;;5.13;;
5217;SDS011;26539;51.064;6.346;2023-08-30T10:58:52;5.77;;;5.27;;
5217;SDS011;26539;51.064;6.346;2023-08-30T11:01:18;7.30;;;6.57;;
5217;SDS011;26539;51.064;6.346;2023-08-30T11:03:44;8.23;;;5.30;;
5217;SDS011;26539;51.064;6.346;2023-08-30T11:06:13;6.20;;;5.50;;
5217;SDS011;26539;51.064;6.346;2023-08-30T11:08:39;6.83;;;6.13;;
5217;SDS011;26539;51.064;6.346;2023-08-30T11:11:05;7.47;;;6.03;;
5217;SDS011;26539;51.064;6.346;2023-08-30T11:13:33;7.87;;;6.17;;
5217;SDS011;26539;51.064;6.346;2023-08-30T11:16:02;6.83;;;6.23;;
5217;SDS011;26539;51.064;6.346;2023-08-30T11:18:36;5.70;;;5.20;;
5217;SDS011;26539;51.064;6.346;2023-08-30T11:21:03;5.67;;;5.17;;
5217;SDS011;26539;51.064;6.346;2023-08-30T11:23:29;6.20;;;5.60;;
5217;SDS011;26539;51.064;6.346;2023-08-30T11:25:55;6.47;;;5.87;;
5217;SDS011;26539;51.064;6.346;2023-08-30T11:28:23;6.20;;;5.60;;
5217;SDS011;26539;51.064;6.346;2023-08-30T11:30:52;5.43;;;4.93;;
5217;SDS011;26539;51.064;6.346;2023-08-30T11:33:19;6.53;;;5.27;;
5217;SDS011;26539;51.064;6.346;2023-08-30T11:35:45;6.07;;;5.00;;
5217;SDS011;26539;51.064;6.346;2023-08-30T11:38:14;5.07;;;4.67;;
5217;SDS011;26539;51.064;6.346;2023-08-30T11:40:40;5.97;;;5.43;;
5217;SDS011;26539;51.064;6.346;2023-08-30T11:43:06;5.53;;;5.00;;
5217;SDS011;26539;51.064;6.346;2023-08-30T11:45:32;5.67;;;5.00;;
5217;SDS011;26539;51.064;6.346;2023-08-30T11:47:59;6.00;;;5.40;;
5217;SDS011;26539;51.064;6.346;2023-08-30T11:50:25;6.33;;;5.73;;
5217;SDS011;26539;51.064;6.346;2023-08-30T11:52:51;5.53;;;5.00;;
5217;SDS011;26539;51.064;6.346;2023-08-30T11:55:18;4.57;;;4.17;;
5217;SDS011;26539;51.064;6.346;2023-08-30T11:57:48;5.53;;;5.03;;
5217;SDS011;26539;51.064;6.346;2023-08-30T12:00:15;4.20;;;3.80;;
5217;SDS011;26539;51.064;6.346;2023-08-30T12:02:43;4.20;;;3.80;;
5217;SDS011;26539;51.064;6.346;2023-08-30T12:05:10;5.10;;;4.60;;
5217;SDS011;26539;51.064;6.346;2023-08-30T12:07:37;5.03;;;4.53;;
5217;SDS011;26539;51.064;6.346;2023-08-30T12:10:07;6.30;;;5.63;;
5217;SDS011;26539;51.064;6.346;2023-08-30T12:12:33;5.40;;;4.90;;
5217;SDS011;26539;51.064;6.346;2023-08-30T12:15:01;6.23;;;5.60;;
5217;SDS011;26539;51.064;6.346;2023-08-30T12:17:34;5.50;;;5.00;;
5217;SDS011;26539;51.064;6.346;2023-08-30T12:20:00;5.07;;;4.57;;
5217;SDS011;26539;51.064;6.346;2023-08-30T12:22:37;4.20;;;3.80;;
5217;SDS011;26539;51.064;6.346;2023-08-30T12:25:03;4.13;;;3.57;;
5217;SDS011;26539;51.064;6.346;2023-08-30T12:27:40;3.63;;;3.33;;
5217;SDS011;26539;51.064;6.346;2023-08-30T12:30:05;4.37;;;3.97;;
5217;SDS011;26539;51.064;6.346;2023-08-30T12:32:31;3.60;;;3.30;;
5217;SDS011;26539;51.064;6.346;2023-08-30T12:34:57;3.40;;;2.80;;
5217;SDS011;26539;51.064;6.346;2023-08-30T12:37:23;3.30;;;3.00;;
5217;SDS011;26539;51.064;6.346;2023-08-30T12:39:49;2.70;;;2.50;;
5217;SDS011;26539;51.064;6.346;2023-08-30T12:42:14;3.20;;;2.90;;
5217;SDS011;26539;51.064;6.346;2023-08-30T12:44:40;3.07;;;2.70;;
5217;SDS011;26539;51.064;6.346;2023-08-30T12:47:05;2.87;;;2.30;;
5217;SDS011;26539;51.064;6.346;2023-08-30T12:49:31;2.90;;;2.30;;
5217;SDS011;26539;51.064;6.346;2023-08-30T12:51:56;2.67;;;2.40;;
5217;SDS011;26539;51.064;6.346;2023-08-30T12:54:22;3.47;;;2.90;;
5217;SDS011;26539;51.064;6.346;2023-08-30T12:56:47;3.07;;;2.77;;
5217;SDS011;26539;51.064;6.346;2023-08-30T12:59:13;3.27;;;2.97;;
5217;SDS011;26539;51.064;6.346;2023-08-30T13:01:38;2.90;;;2.60;;
5217;SDS011;26539;51.064;6.346;2023-08-30T13:04:04;3.20;;;2.50;;
5217;SDS011;26539;51.064;6.346;2023-08-30T13:06:29;13.70;;;3.60;;
5217;SDS011;26539;51.064;6.346;2023-08-30T13:08:55;5.80;;;3.37;;
5217;SDS011;26539;51.064;6.346;2023-08-30T13:11:21;2.90;;;2.70;;
5217;SDS011;26539;51.064;6.346;2023-08-30T13:13:46;3.93;;;3.40;;
5217;SDS011;26539;51.064;6.346;2023-08-30T13:16:12;3.00;;;2.70;;
5217;SDS011;26539;51.064;6.346;2023-08-30T13:18:37;6.70;;;4.10;;
5217;SDS011;26539;51.064;6.346;2023-08-30T13:21:03;5.63;;;4.70;;
5217;SDS011;26539;51.064;6.346;2023-08-30T13:23:29;4.27;;;3.43;;
5217;SDS011;26539;51.064;6.346;2023-08-30T13:25:54;4.63;;;3.57;;
5217;SDS011;26539;51.064;6.346;2023-08-30T13:28:20;4.23;;;3.83;;
5217;SDS011;26539;51.064;6.346;2023-08-30T13:30:46;4.30;;;3.90;;
5217;SDS011;26539;51.064;6.346;2023-08-30T13:33:12;4.50;;;3.63;;
5217;SDS011;26539;51.064;6.346;2023-08-30T13:35:40;4.00;;;3.60;;
5217;SDS011;26539;51.064;6.346;2023-08-30T13:38:06;6.90;;;3.90;;
5217;SDS011;26539;51.064;6.346;2023-08-30T13:40:32;5.80;;;3.97;;
5217;SDS011;26539;51.064;6.346;2023-08-30T13:42:57;3.90;;;3.60;;
5217;SDS011;26539;51.064;6.346;2023-08-30T13:45:23;4.40;;;4.00;;
5217;SDS011;26539;51.064;6.346;2023-08-30T13:47:48;5.17;;;4.37;;
5217;SDS011;26539;51.064;6.346;2023-08-30T13:50:16;4.80;;;4.27;;
5217;SDS011;26539;51.064;6.346;2023-08-30T13:52:42;3.73;;;3.43;;
5217;SDS011;26539;51.064;6.346;2023-08-30T13:55:08;4.47;;;3.77;;
5217;SDS011;26539;51.064;6.346;2023-08-30T13:57:33;4.37;;;3.97;;
5217;SDS011;26539;51.064;6.346;2023-08-30T13:59:59;5.10;;;3.90;;
5217;SDS011;26539;51.064;6.346;2023-08-30T14:02:27;5.40;;;4.13;;
5217;SDS011;26539;51.064;6.346;2023-08-30T14:04:53;4.60;;;4.20;;
5217;SDS011;26539;51.064;6.346;2023-08-30T14:07:18;9.10;;;5.00;;
5217;SDS011;26539;51.064;6.346;2023-08-30T14:09:43;4.00;;;3.70;;
5217;SDS011;26539;51.064;6.346;2023-08-30T14:12:09;4.73;;;4.33;;
5217;SDS011;26539;51.064;6.346;2023-08-30T14:14:35;6.33;;;4.40;;
5217;SDS011;26539;51.064;6.346;2023-08-30T14:17:01;6.30;;;4.60;;
5217;SDS011;26539;51.064;6.346;2023-08-30T14:19:27;7.67;;;4.90;;
5217;SDS011;26539;51.064;6.346;2023-08-30T14:21:52;5.23;;;4.80;;
5217;SDS011;26539;51.064;6.346;2023-08-30T14:24:20;5.20;;;4.70;;
5217;SDS011;26539;51.064;6.346;2023-08-30T14:26:45;5.80;;;5.20;;
5217;SDS011;26539;51.064;6.346;2023-08-30T14:29:11;6.73;;;6.03;;
5217;SDS011;26539;51.064;6.346;2023-08-30T14:31:36;5.20;;;4.70;;
5217;SDS011;26539;51.064;6.346;2023-08-30T14:34:02;6.00;;;5.33;;
5217;SDS011;26539;51.064;6.346;2023-08-30T14:36:27;5.40;;;4.57;;
5217;SDS011;26539;51.064;6.346;2023-08-30T14:38:53;5.57;;;4.90;;
5217;SDS011;26539;51.064;6.346;2023-08-30T14:41:18;8.30;;;4.80;;
5217;SDS011;26539;51.064;6.346;2023-08-30T14:43:44;5.23;;;4.73;;
5217;SDS011;26539;51.064;6.346;2023-08-30T14:46:09;4.90;;;4.40;;
5217;SDS011;26539;51.064;6.346;2023-08-30T14:48:35;4.53;;;4.13;;
5217;SDS011;26539;51.064;6.346;2023-08-30T14:51:01;5.50;;;4.80;;
5217;SDS011;26539;51.064;6.346;2023-08-30T14:53:29;4.47;;;4.07;;
5217;SDS011;26539;51.064;6.346;2023-08-30T14:55:55;4.80;;;4.30;;